sensor_id;sensor_type;location;lat;lon;timestamp;pressure;altitude;pressure_sealevel;temperature;humidity
11648;BME280;5880;52.342;9.662;2024-01-30T00:01:53;102205.81;;;10.26;47.75
11648;BME280;5880;52.342;9.662;2024-01-30T00:04:19;102200.69;;;10.23;47.74
11648;BME280;5880;52.342;9.662;2024-01-30T00:06:45;102199.19;;;10.20;47.53
11648;BME280;5880;52.342;9.662;2024-01-30T00:09:11;102200.25;;;10.19;47.54
11648;BME280;5880;52.342;9.662;2024-01-30T00:11:37;102203.38;;;10.16;47.27
11648;BME280;5880;52.342;9.662;2024-01-30T00:14:04;102209.19;;;10.13;47.48
11648;BME280;5880;52.342;9.662;2024-01-30T00:16:30;102205.16;;;10.09;47.18
11648;BME280;5880;52.342;9.662;2024-01-30T00:18:56;102194.78;;;10.04;47.38
11648;BME280;5880;52.342;9.662;2024-01-30T00:21:22;102197.91;;;10.01;47.64
11648;BME280;5880;52.342;9.662;2024-01-30T00:23:48;102188.41;;;9.97;47.83
11648;BME280;5880;52.342;9.662;2024-01-30T00:26:14;102185.03;;;9.95;47.72
11648;BME280;5880;52.342;9.662;2024-01-30T00:28:41;102174.28;;;9.93;48.17
11648;BME280;5880;52.342;9.662;2024-01-30T00:31:07;102188.78;;;9.94;48.10
11648;BME280;5880;52.342;9.662;2024-01-30T00:33:33;102179.94;;;9.92;48.47
11648;BME280;5880;52.342;9.662;2024-01-30T00:35:59;102179.09;;;9.91;48.47
11648;BME280;5880;52.342;9.662;2024-01-30T00:38:24;102173.44;;;9.93;48.55
11648;BME280;5880;52.342;9.662;2024-01-30T00:40:50;102179.56;;;9.95;48.77
11648;BME280;5880;52.342;9.662;2024-01-30T00:43:16;102186.53;;;9.98;48.80
11648;BME280;5880;52.342;9.662;2024-01-30T00:45:44;102184.66;;;9.98;48.79
11648;BME280;5880;52.342;9.662;2024-01-30T00:48:09;102183.41;;;10.01;48.86
11648;BME280;5880;52.342;9.662;2024-01-30T00:50:35;102183.88;;;10.04;48.91
11648;BME280;5880;52.342;9.662;2024-01-30T00:53:01;102182.00;;;10.05;49.17
11648;BME280;5880;52.342;9.662;2024-01-30T00:55:26;102179.72;;;10.08;49.22
11648;BME280;5880;52.342;9.662;2024-01-30T00:57:52;102185.00;;;10.10;49.41
11648;BME280;5880;52.342;9.662;2024-01-30T01:00:18;102186.69;;;10.11;49.41
11648;BME280;5880;52.342;9.662;2024-01-30T01:02:44;102186.31;;;10.14;49.67
11648;BME280;5880;52.342;9.662;2024-01-30T01:05:10;102186.97;;;10.16;49.37
11648;BME280;5880;52.342;9.662;2024-01-30T01:07:35;102186.78;;;10.18;49.35
11648;BME280;5880;52.342;9.662;2024-01-30T01:10:01;102193.56;;;10.22;49.50
11648;BME280;5880;52.342;9.662;2024-01-30T01:12:28;102181.13;;;10.19;49.66
11648;BME280;5880;52.342;9.662;2024-01-30T01:14:53;102191.25;;;10.25;49.82
11648;BME280;5880;52.342;9.662;2024-01-30T01:17:19;102187.31;;;10.28;49.62
11648;BME280;5880;52.342;9.662;2024-01-30T01:19:45;102191.78;;;10.29;49.93
11648;BME280;5880;52.342;9.662;2024-01-30T01:22:11;102191.59;;;10.30;49.80
11648;BME280;5880;52.342;9.662;2024-01-30T01:24:36;102191.59;;;10.30;49.84
11648;BME280;5880;52.342;9.662;2024-01-30T01:27:02;102190.34;;;10.33;49.89
11648;BME280;5880;52.342;9.662;2024-01-30T01:29:28;102183.44;;;10.37;49.95
11648;BME280;5880;52.342;9.662;2024-01-30T01:31:58;102188.53;;;10.40;49.92
11648;BME280;5880;52.342;9.662;2024-01-30T01:34:24;102178.63;;;10.39;49.98
11648;BME280;5880;52.342;9.662;2024-01-30T01:36:50;102185.88;;;10.47;50.12
11648;BME280;5880;52.342;9.662;2024-01-30T01:39:17;102181.69;;;10.51;50.22
11648;BME280;5880;52.342;9.662;2024-01-30T01:41:43;102176.88;;;10.53;49.97
11648;BME280;5880;52.342;9.662;2024-01-30T01:44:09;102179.25;;;10.56;50.17
11648;BME280;5880;52.342;9.662;2024-01-30T01:46:35;102169.81;;;10.59;49.93
11648;BME280;5880;52.342;9.662;2024-01-30T01:49:03;102165.00;;;10.61;50.19
11648;BME280;5880;52.342;9.662;2024-01-30T01:51:33;102175.53;;;10.64;50.22
11648;BME280;5880;52.342;9.662;2024-01-30T01:54:04;102168.84;;;10.66;50.08
11648;BME280;5880;52.342;9.662;2024-01-30T01:56:33;102160.44;;;10.68;50.44
11648;BME280;5880;52.342;9.662;2024-01-30T01:59:07;102153.34;;;10.73;50.40
11648;BME280;5880;52.342;9.662;2024-01-30T02:01:34;102156.06;;;10.73;50.57
11648;BME280;5880;52.342;9.662;2024-01-30T02:04:00;102144.06;;;10.74;50.64
11648;BME280;5880;52.342;9.662;2024-01-30T02:06:27;102144.94;;;10.75;50.42
11648;BME280;5880;52.342;9.662;2024-01-30T02:08:54;102144.53;;;10.78;50.56
11648;BME280;5880;52.342;9.662;2024-01-30T02:11:23;102137.41;;;10.84;50.44
11648;BME280;5880;52.342;9.662;2024-01-30T02:13:49;102148.19;;;10.85;50.18
11648;BME280;5880;52.342;9.662;2024-01-30T02:16:16;102131.94;;;10.84;50.30
11648;BME280;5880;52.342;9.662;2024-01-30T02:18:43;102130.94;;;10.85;50.41
11648;BME280;5880;52.342;9.662;2024-01-30T02:21:13;102134.31;;;10.87;50.49
11648;BME280;5880;52.342;9.662;2024-01-30T02:23:40;102141.28;;;10.89;50.58
11648;BME280;5880;52.342;9.662;2024-01-30T02:26:06;102140.22;;;10.90;50.26
11648;BME280;5880;52.342;9.662;2024-01-30T02:28:32;102129.50;;;10.89;50.21
11648;BME280;5880;52.342;9.662;2024-01-30T02:30:57;102131.34;;;10.88;49.97
11648;BME280;5880;52.342;9.662;2024-01-30T02:33:23;102132.22;;;10.89;50.11
11648;BME280;5880;52.342;9.662;2024-01-30T02:35:49;102123.16;;;10.88;50.21
11648;BME280;5880;52.342;9.662;2024-01-30T02:38:16;102125.03;;;10.88;50.24
11648;BME280;5880;52.342;9.662;2024-01-30T02:40:42;102126.09;;;10.87;50.27
11648;BME280;5880;52.342;9.662;2024-01-30T02:43:07;102118.94;;;10.86;50.35
11648;BME280;5880;52.342;9.662;2024-01-30T02:45:33;102117.91;;;10.87;50.34
11648;BME280;5880;52.342;9.662;2024-01-30T02:47:59;102108.63;;;10.88;50.31
11648;BME280;5880;52.342;9.662;2024-01-30T02:50:25;102116.84;;;10.88;50.21
11648;BME280;5880;52.342;9.662;2024-01-30T02:52:50;102114.94;;;10.88;50.07
11648;BME280;5880;52.342;9.662;2024-01-30T02:55:16;102110.34;;;10.89;50.25
11648;BME280;5880;52.342;9.662;2024-01-30T02:57:43;102104.22;;;10.87;49.98
11648;BME280;5880;52.342;9.662;2024-01-30T03:00:09;102106.50;;;10.83;49.97
11648;BME280;5880;52.342;9.662;2024-01-30T03:02:36;102106.72;;;10.82;49.85
11648;BME280;5880;52.342;9.662;2024-01-30T03:05:02;102104.34;;;10.78;49.82
11648;BME280;5880;52.342;9.662;2024-01-30T03:07:29;102098.03;;;10.78;49.86
11648;BME280;5880;52.342;9.662;2024-01-30T03:09:55;102097.56;;;10.74;49.78
11648;BME280;5880;52.342;9.662;2024-01-30T03:12:21;102103.03;;;10.74;49.63
11648;BME280;5880;52.342;9.662;2024-01-30T03:14:48;102092.69;;;10.70;49.68
11648;BME280;5880;52.342;9.662;2024-01-30T03:17:15;102100.28;;;10.68;49.59
11648;BME280;5880;52.342;9.662;2024-01-30T03:19:40;102088.22;;;10.62;49.54
11648;BME280;5880;52.342;9.662;2024-01-30T03:22:06;102090.31;;;10.60;49.70
11648;BME280;5880;52.342;9.662;2024-01-30T03:24:32;102085.84;;;10.52;49.82
11648;BME280;5880;52.342;9.662;2024-01-30T03:26:57;102101.59;;;10.50;49.64
11648;BME280;5880;52.342;9.662;2024-01-30T03:29:23;102076.25;;;10.42;49.93
11648;BME280;5880;52.342;9.662;2024-01-30T03:31:48;102083.44;;;10.43;49.85
11648;BME280;5880;52.342;9.662;2024-01-30T03:34:14;102094.38;;;10.43;49.67
11648;BME280;5880;52.342;9.662;2024-01-30T03:36:40;102085.91;;;10.38;49.73
11648;BME280;5880;52.342;9.662;2024-01-30T03:39:05;102081.47;;;10.37;49.87
11648;BME280;5880;52.342;9.662;2024-01-30T03:41:31;102084.41;;;10.35;49.88
11648;BME280;5880;52.342;9.662;2024-01-30T03:43:57;102089.00;;;10.34;49.89
11648;BME280;5880;52.342;9.662;2024-01-30T03:46:23;102075.75;;;10.31;49.92
11648;BME280;5880;52.342;9.662;2024-01-30T03:48:49;102081.41;;;10.30;49.75
11648;BME280;5880;52.342;9.662;2024-01-30T03:51:15;102084.13;;;10.30;49.72
11648;BME280;5880;52.342;9.662;2024-01-30T03:53:42;102089.81;;;10.28;49.68
11648;BME280;5880;52.342;9.662;2024-01-30T03:56:08;102080.94;;;10.26;49.90
11648;BME280;5880;52.342;9.662;2024-01-30T03:58:34;102087.81;;;10.22;49.88
11648;BME280;5880;52.342;9.662;2024-01-30T04:01:00;102085.88;;;10.16;49.90
11648;BME280;5880;52.342;9.662;2024-01-30T04:03:25;102087.97;;;10.14;49.93
11648;BME280;5880;52.342;9.662;2024-01-30T04:05:54;102084.56;;;10.12;50.19
11648;BME280;5880;52.342;9.662;2024-01-30T04:08:20;102077.59;;;10.09;49.87
11648;BME280;5880;52.342;9.662;2024-01-30T04:10:47;102076.72;;;10.09;49.88
11648;BME280;5880;52.342;9.662;2024-01-30T04:13:13;102076.69;;;10.02;50.17
11648;BME280;5880;52.342;9.662;2024-01-30T04:15:39;102071.66;;;10.06;50.19
11648;BME280;5880;52.342;9.662;2024-01-30T04:18:05;102077.13;;;10.06;50.28
11648;BME280;5880;52.342;9.662;2024-01-30T04:20:31;102066.78;;;10.01;50.00
11648;BME280;5880;52.342;9.662;2024-01-30T04:22:57;102079.44;;;10.02;50.07
11648;BME280;5880;52.342;9.662;2024-01-30T04:25:22;102067.38;;;9.97;50.36
11648;BME280;5880;52.342;9.662;2024-01-30T04:27:48;102068.50;;;10.02;50.25
11648;BME280;5880;52.342;9.662;2024-01-30T04:30:14;102072.25;;;10.01;50.09
11648;BME280;5880;52.342;9.662;2024-01-30T04:32:40;102072.66;;;9.98;50.03
11648;BME280;5880;52.342;9.662;2024-01-30T04:35:06;102074.53;;;9.98;50.03
11648;BME280;5880;52.342;9.662;2024-01-30T04:37:32;102086.31;;;9.98;50.19
11648;BME280;5880;52.342;9.662;2024-01-30T04:39:58;102074.06;;;9.94;50.20
11648;BME280;5880;52.342;9.662;2024-01-30T04:42:23;102070.88;;;9.90;50.30
11648;BME280;5880;52.342;9.662;2024-01-30T04:44:50;102081.22;;;9.95;50.10
11648;BME280;5880;52.342;9.662;2024-01-30T04:47:16;102075.94;;;9.93;50.27
11648;BME280;5880;52.342;9.662;2024-01-30T04:49:41;102080.56;;;9.93;49.99
11648;BME280;5880;52.342;9.662;2024-01-30T04:52:08;102080.75;;;9.91;50.10
11648;BME280;5880;52.342;9.662;2024-01-30T04:54:35;102070.66;;;9.92;50.10
11648;BME280;5880;52.342;9.662;2024-01-30T04:57:02;102074.63;;;9.89;50.32
11648;BME280;5880;52.342;9.662;2024-01-30T04:59:27;102064.50;;;9.83;50.17
11648;BME280;5880;52.342;9.662;2024-01-30T05:01:53;102073.16;;;9.87;50.32
11648;BME280;5880;52.342;9.662;2024-01-30T05:04:19;102066.19;;;9.84;50.27
11648;BME280;5880;52.342;9.662;2024-01-30T05:06:45;102063.63;;;9.83;50.39
11648;BME280;5880;52.342;9.662;2024-01-30T05:09:11;102068.06;;;9.84;50.17
11648;BME280;5880;52.342;9.662;2024-01-30T05:11:41;102075.44;;;9.83;50.39
11648;BME280;5880;52.342;9.662;2024-01-30T05:14:07;102074.56;;;9.83;50.21
11648;BME280;5880;52.342;9.662;2024-01-30T05:16:34;102077.28;;;9.83;50.51
11648;BME280;5880;52.342;9.662;2024-01-30T05:19:00;102075.63;;;9.82;50.54
11648;BME280;5880;52.342;9.662;2024-01-30T05:21:26;102070.53;;;9.79;50.44
11648;BME280;5880;52.342;9.662;2024-01-30T05:23:52;102075.13;;;9.78;50.51
11648;BME280;5880;52.342;9.662;2024-01-30T05:26:17;102073.28;;;9.79;50.35
11648;BME280;5880;52.342;9.662;2024-01-30T05:28:43;102081.47;;;9.79;50.48
11648;BME280;5880;52.342;9.662;2024-01-30T05:31:12;102064.44;;;9.77;50.24
11648;BME280;5880;52.342;9.662;2024-01-30T05:33:38;102071.94;;;9.75;50.21
11648;BME280;5880;52.342;9.662;2024-01-30T05:36:04;102077.19;;;9.76;50.47
11648;BME280;5880;52.342;9.662;2024-01-30T05:38:29;102068.16;;;9.76;50.15
11648;BME280;5880;52.342;9.662;2024-01-30T05:40:55;102067.72;;;9.72;50.47
11648;BME280;5880;52.342;9.662;2024-01-30T05:43:23;102067.06;;;9.70;50.33
11648;BME280;5880;52.342;9.662;2024-01-30T05:45:49;102062.84;;;9.67;50.44
11648;BME280;5880;52.342;9.662;2024-01-30T05:48:14;102068.97;;;9.69;50.56
11648;BME280;5880;52.342;9.662;2024-01-30T05:50:40;102068.31;;;9.67;50.67
11648;BME280;5880;52.342;9.662;2024-01-30T05:53:06;102067.16;;;9.62;50.55
11648;BME280;5880;52.342;9.662;2024-01-30T05:55:31;102063.78;;;9.60;50.57
11648;BME280;5880;52.342;9.662;2024-01-30T05:57:57;102071.78;;;9.61;50.37
11648;BME280;5880;52.342;9.662;2024-01-30T06:00:23;102066.50;;;9.60;50.56
11648;BME280;5880;52.342;9.662;2024-01-30T06:02:48;102063.06;;;9.51;50.56
11648;BME280;5880;52.342;9.662;2024-01-30T06:05:14;102063.16;;;9.58;50.64
11648;BME280;5880;52.342;9.662;2024-01-30T06:07:40;102070.69;;;9.56;50.49
11648;BME280;5880;52.342;9.662;2024-01-30T06:10:06;102062.66;;;9.54;50.51
11648;BME280;5880;52.342;9.662;2024-01-30T06:12:32;102063.72;;;9.53;50.66
11648;BME280;5880;52.342;9.662;2024-01-30T06:14:58;102069.34;;;9.51;50.76
11648;BME280;5880;52.342;9.662;2024-01-30T06:17:24;102064.06;;;9.50;50.65
11648;BME280;5880;52.342;9.662;2024-01-30T06:19:49;102054.22;;;9.49;50.58
11648;BME280;5880;52.342;9.662;2024-01-30T06:22:16;102059.84;;;9.47;50.82
11648;BME280;5880;52.342;9.662;2024-01-30T06:24:42;102061.56;;;9.48;50.59
11648;BME280;5880;52.342;9.662;2024-01-30T06:27:10;102062.56;;;9.47;50.70
11648;BME280;5880;52.342;9.662;2024-01-30T06:29:36;102065.31;;;9.47;50.79
11648;BME280;5880;52.342;9.662;2024-01-30T06:32:02;102059.84;;;9.47;50.82
11648;BME280;5880;52.342;9.662;2024-01-30T06:34:27;102041.53;;;9.41;50.74
11648;BME280;5880;52.342;9.662;2024-01-30T06:36:53;102055.44;;;9.46;50.82
11648;BME280;5880;52.342;9.662;2024-01-30T06:39:19;102044.88;;;9.43;50.84
11648;BME280;5880;52.342;9.662;2024-01-30T06:41:44;102048.47;;;9.44;50.85
11648;BME280;5880;52.342;9.662;2024-01-30T06:44:12;102043.84;;;9.44;50.86
11648;BME280;5880;52.342;9.662;2024-01-30T06:46:38;102058.53;;;9.43;51.18
11648;BME280;5880;52.342;9.662;2024-01-30T06:49:05;102046.75;;;9.43;51.15
11648;BME280;5880;52.342;9.662;2024-01-30T06:51:31;102053.06;;;9.43;50.99
11648;BME280;5880;52.342;9.662;2024-01-30T06:53:56;102038.56;;;9.43;51.00
11648;BME280;5880;52.342;9.662;2024-01-30T06:56:22;102050.53;;;9.42;51.20
11648;BME280;5880;52.342;9.662;2024-01-30T06:58:49;102045.09;;;9.42;51.06
11648;BME280;5880;52.342;9.662;2024-01-30T07:01:15;102052.22;;;9.43;51.19
11648;BME280;5880;52.342;9.662;2024-01-30T07:03:41;102053.94;;;9.44;50.91
11648;BME280;5880;52.342;9.662;2024-01-30T07:06:07;102049.50;;;9.43;51.20
11648;BME280;5880;52.342;9.662;2024-01-30T07:08:33;102052.22;;;9.43;51.06
11648;BME280;5880;52.342;9.662;2024-01-30T07:10:59;102054.13;;;9.42;50.97
11648;BME280;5880;52.342;9.662;2024-01-30T07:13:24;102053.63;;;9.39;50.89
11648;BME280;5880;52.342;9.662;2024-01-30T07:15:50;102059.75;;;9.41;50.94
11648;BME280;5880;52.342;9.662;2024-01-30T07:18:16;102050.53;;;9.42;51.02
11648;BME280;5880;52.342;9.662;2024-01-30T07:20:41;102052.44;;;9.41;50.99
11648;BME280;5880;52.342;9.662;2024-01-30T07:23:12;102045.94;;;9.42;51.12
11648;BME280;5880;52.342;9.662;2024-01-30T07:25:40;102049.31;;;9.44;50.92
11648;BME280;5880;52.342;9.662;2024-01-30T07:28:08;102047.59;;;9.43;50.96
11648;BME280;5880;52.342;9.662;2024-01-30T07:30:35;102053.72;;;9.45;51.25
11648;BME280;5880;52.342;9.662;2024-01-30T07:33:01;102048.25;;;9.45;51.15
11648;BME280;5880;52.342;9.662;2024-01-30T07:35:26;102050.16;;;9.45;51.24
11648;BME280;5880;52.342;9.662;2024-01-30T07:37:52;102052.88;;;9.45;51.38
11648;BME280;5880;52.342;9.662;2024-01-30T07:40:18;102057.13;;;9.47;51.33
11648;BME280;5880;52.342;9.662;2024-01-30T07:42:43;102041.13;;;9.44;51.27
11648;BME280;5880;52.342;9.662;2024-01-30T07:45:09;102055.72;;;9.51;51.29
11648;BME280;5880;52.342;9.662;2024-01-30T07:47:35;102048.34;;;9.52;51.44
11648;BME280;5880;52.342;9.662;2024-01-30T07:50:01;102040.00;;;9.54;51.42
11648;BME280;5880;52.342;9.662;2024-01-30T07:52:26;102043.38;;;9.56;51.53
11648;BME280;5880;52.342;9.662;2024-01-30T07:54:52;102039.59;;;9.57;51.68
11648;BME280;5880;52.342;9.662;2024-01-30T07:57:18;102035.44;;;9.61;51.51
11648;BME280;5880;52.342;9.662;2024-01-30T07:59:45;102036.94;;;9.63;51.48
11648;BME280;5880;52.342;9.662;2024-01-30T08:02:12;102041.19;;;9.66;51.56
11648;BME280;5880;52.342;9.662;2024-01-30T08:04:38;102042.69;;;9.68;51.71
11648;BME280;5880;52.342;9.662;2024-01-30T08:07:04;102040.41;;;9.72;51.98
11648;BME280;5880;52.342;9.662;2024-01-30T08:09:30;102041.91;;;9.75;51.86
11648;BME280;5880;52.342;9.662;2024-01-30T08:11:56;102033.16;;;9.79;51.94
11648;BME280;5880;52.342;9.662;2024-01-30T08:14:21;102041.59;;;9.84;51.94
11648;BME280;5880;52.342;9.662;2024-01-30T08:16:47;102040.78;;;9.84;51.99
11648;BME280;5880;52.342;9.662;2024-01-30T08:19:14;102038.28;;;9.89;52.20
11648;BME280;5880;52.342;9.662;2024-01-30T08:21:40;102020.84;;;9.90;52.36
11648;BME280;5880;52.342;9.662;2024-01-30T08:24:07;102035.06;;;10.00;52.30
11648;BME280;5880;52.342;9.662;2024-01-30T08:26:33;102027.13;;;10.05;52.17
11648;BME280;5880;52.342;9.662;2024-01-30T08:28:59;102035.56;;;10.10;52.20
11648;BME280;5880;52.342;9.662;2024-01-30T08:31:26;102028.88;;;10.13;52.39
11648;BME280;5880;52.342;9.662;2024-01-30T08:33:52;102042.59;;;10.20;52.42
11648;BME280;5880;52.342;9.662;2024-01-30T08:36:17;102041.34;;;10.22;52.36
11648;BME280;5880;52.342;9.662;2024-01-30T08:38:43;102044.56;;;10.26;52.01
11648;BME280;5880;52.342;9.662;2024-01-30T08:41:09;102046.09;;;10.28;52.05
11648;BME280;5880;52.342;9.662;2024-01-30T08:43:35;102043.59;;;10.33;52.48
11648;BME280;5880;52.342;9.662;2024-01-30T08:46:02;102040.28;;;10.38;52.19
11648;BME280;5880;52.342;9.662;2024-01-30T08:48:27;102034.63;;;10.40;52.17
11648;BME280;5880;52.342;9.662;2024-01-30T08:50:53;102046.47;;;10.47;52.38
11648;BME280;5880;52.342;9.662;2024-01-30T08:53:19;102042.28;;;10.51;52.24
11648;BME280;5880;52.342;9.662;2024-01-30T08:55:45;102042.75;;;10.54;52.21
11648;BME280;5880;52.342;9.662;2024-01-30T08:58:11;102034.13;;;10.57;52.39
11648;BME280;5880;52.342;9.662;2024-01-30T09:00:37;102034.59;;;10.61;52.57
11648;BME280;5880;52.342;9.662;2024-01-30T09:03:04;102032.09;;;10.66;52.65
11648;BME280;5880;52.342;9.662;2024-01-30T09:05:29;102032.53;;;10.70;52.51
11648;BME280;5880;52.342;9.662;2024-01-30T09:07:55;102024.59;;;10.75;52.66
11648;BME280;5880;52.342;9.662;2024-01-30T09:10:21;102023.34;;;10.77;52.50
11648;BME280;5880;52.342;9.662;2024-01-30T09:12:47;102025.91;;;10.86;52.64
11648;BME280;5880;52.342;9.662;2024-01-30T09:15:13;102031.44;;;10.92;52.52
11648;BME280;5880;52.342;9.662;2024-01-30T09:17:39;102027.06;;;10.98;52.58
11648;BME280;5880;52.342;9.662;2024-01-30T09:20:05;102017.41;;;11.02;52.57
11648;BME280;5880;52.342;9.662;2024-01-30T09:22:31;102012.16;;;11.07;52.81
11648;BME280;5880;52.342;9.662;2024-01-30T09:24:57;102017.25;;;11.10;52.86
11648;BME280;5880;52.342;9.662;2024-01-30T09:27:23;102020.66;;;11.19;52.73
11648;BME280;5880;52.342;9.662;2024-01-30T09:29:49;102023.66;;;11.24;52.80
11648;BME280;5880;52.342;9.662;2024-01-30T09:32:15;102018.41;;;11.29;52.93
11648;BME280;5880;52.342;9.662;2024-01-30T09:34:41;102020.53;;;11.34;52.78
11648;BME280;5880;52.342;9.662;2024-01-30T09:37:07;102026.22;;;11.39;52.96
11648;BME280;5880;52.342;9.662;2024-01-30T09:39:33;102018.47;;;11.43;52.64
11648;BME280;5880;52.342;9.662;2024-01-30T09:42:23;102025.00;;;11.48;52.55
11648;BME280;5880;52.342;9.662;2024-01-30T09:44:53;102035.53;;;11.51;52.78
11648;BME280;5880;52.342;9.662;2024-01-30T09:47:19;102035.75;;;11.56;52.66
11648;BME280;5880;52.342;9.662;2024-01-30T09:49:45;102029.91;;;11.59;52.92
11648;BME280;5880;52.342;9.662;2024-01-30T09:52:11;102029.06;;;11.66;52.71
11648;BME280;5880;52.342;9.662;2024-01-30T09:54:38;102036.47;;;11.72;53.00
11648;BME280;5880;52.342;9.662;2024-01-30T09:57:04;102030.38;;;11.76;52.91
11648;BME280;5880;52.342;9.662;2024-01-30T09:59:31;102031.22;;;11.83;52.85
11648;BME280;5880;52.342;9.662;2024-01-30T10:01:57;102031.47;;;11.89;52.67
11648;BME280;5880;52.342;9.662;2024-01-30T10:04:23;102028.97;;;11.94;52.72
11648;BME280;5880;52.342;9.662;2024-01-30T10:06:50;102023.50;;;12.00;52.71
11648;BME280;5880;52.342;9.662;2024-01-30T10:09:16;102025.63;;;12.05;53.05
11648;BME280;5880;52.342;9.662;2024-01-30T10:11:41;102013.84;;;12.11;53.02
11648;BME280;5880;52.342;9.662;2024-01-30T10:14:07;102018.06;;;12.14;53.00
11648;BME280;5880;52.342;9.662;2024-01-30T10:16:34;102025.84;;;12.23;53.07
11648;BME280;5880;52.342;9.662;2024-01-30T10:19:00;102017.84;;;12.29;52.75
11648;BME280;5880;52.342;9.662;2024-01-30T10:21:26;102010.69;;;12.34;53.02
11648;BME280;5880;52.342;9.662;2024-01-30T10:23:52;102019.97;;;12.40;52.96
11648;BME280;5880;52.342;9.662;2024-01-30T10:26:17;102007.53;;;12.44;52.67
11648;BME280;5880;52.342;9.662;2024-01-30T10:28:43;102000.56;;;12.48;52.94
11648;BME280;5880;52.342;9.662;2024-01-30T10:31:09;102004.16;;;12.55;52.72
11648;BME280;5880;52.342;9.662;2024-01-30T10:33:35;102004.56;;;12.59;52.69
11648;BME280;5880;52.342;9.662;2024-01-30T10:36:03;102001.41;;;12.62;52.69
11648;BME280;5880;52.342;9.662;2024-01-30T10:38:31;101997.16;;;12.66;52.80
11648;BME280;5880;52.342;9.662;2024-01-30T10:41:00;101999.50;;;12.69;52.57
11648;BME280;5880;52.342;9.662;2024-01-30T10:43:42;101986.81;;;12.68;52.70
11648;BME280;5880;52.342;9.662;2024-01-30T10:46:19;102000.53;;;12.75;52.58
11648;BME280;5880;52.342;9.662;2024-01-30T10:48:58;102003.72;;;12.78;52.51
11648;BME280;5880;52.342;9.662;2024-01-30T10:51:27;102005.38;;;12.79;52.74
11648;BME280;5880;52.342;9.662;2024-01-30T10:53:53;102010.44;;;12.82;52.64
11648;BME280;5880;52.342;9.662;2024-01-30T10:56:22;102003.47;;;12.86;52.66
11648;BME280;5880;52.342;9.662;2024-01-30T10:58:50;102004.72;;;12.91;52.53
11648;BME280;5880;52.342;9.662;2024-01-30T11:01:22;102000.28;;;12.89;52.64
11648;BME280;5880;52.342;9.662;2024-01-30T11:03:52;101999.44;;;12.96;52.54
11648;BME280;5880;52.342;9.662;2024-01-30T11:06:18;101993.94;;;12.96;52.47
11648;BME280;5880;52.342;9.662;2024-01-30T11:09:03;101994.97;;;13.01;52.36
11648;BME280;5880;52.342;9.662;2024-01-30T11:11:29;101990.56;;;13.00;52.68
11648;BME280;5880;52.342;9.662;2024-01-30T11:13:55;101982.53;;;12.99;52.67
11648;BME280;5880;52.342;9.662;2024-01-30T11:16:21;101987.38;;;13.03;52.41
11648;BME280;5880;52.342;9.662;2024-01-30T11:18:50;101983.34;;;13.06;52.64
11648;BME280;5880;52.342;9.662;2024-01-30T11:21:18;101978.72;;;13.06;52.42
11648;BME280;5880;52.342;9.662;2024-01-30T11:23:44;101984.63;;;13.10;52.59
11648;BME280;5880;52.342;9.662;2024-01-30T11:26:13;101983.56;;;13.11;52.68
11648;BME280;5880;52.342;9.662;2024-01-30T11:28:38;101977.84;;;13.19;52.47
11648;BME280;5880;52.342;9.662;2024-01-30T11:31:07;101985.41;;;13.24;52.66
11648;BME280;5880;52.342;9.662;2024-01-30T11:33:35;101980.38;;;13.27;52.82
11648;BME280;5880;52.342;9.662;2024-01-30T11:36:01;101978.88;;;13.32;52.72
11648;BME280;5880;52.342;9.662;2024-01-30T11:38:28;101977.38;;;13.36;52.75
11648;BME280;5880;52.342;9.662;2024-01-30T11:40:55;101971.22;;;13.40;53.03
11648;BME280;5880;52.342;9.662;2024-01-30T11:43:22;101962.53;;;13.43;53.06
11648;BME280;5880;52.342;9.662;2024-01-30T11:45:48;101965.06;;;13.51;52.90
11648;BME280;5880;52.342;9.662;2024-01-30T11:48:14;101964.16;;;13.58;52.97
11648;BME280;5880;52.342;9.662;2024-01-30T11:50:40;101953.13;;;13.64;52.99
11648;BME280;5880;52.342;9.662;2024-01-30T11:53:10;101953.09;;;13.71;53.09
11648;BME280;5880;52.342;9.662;2024-01-30T11:55:36;101950.75;;;13.75;52.89
11648;BME280;5880;52.342;9.662;2024-01-30T11:58:03;101935.44;;;13.85;53.13
11648;BME280;5880;52.342;9.662;2024-01-30T12:00:32;101927.16;;;13.92;53.06
11648;BME280;5880;52.342;9.662;2024-01-30T12:02:58;101929.84;;;13.99;53.00
11648;BME280;5880;52.342;9.662;2024-01-30T12:05:27;101929.81;;;14.05;53.05
11648;BME280;5880;52.342;9.662;2024-01-30T12:07:53;101917.06;;;14.11;52.89
11648;BME280;5880;52.342;9.662;2024-01-30T12:10:19;101919.34;;;14.14;52.82
11648;BME280;5880;52.342;9.662;2024-01-30T12:12:50;101918.69;;;14.19;52.74
11648;BME280;5880;52.342;9.662;2024-01-30T12:15:18;101920.16;;;14.21;52.68
11648;BME280;5880;52.342;9.662;2024-01-30T12:17:47;101943.16;;;14.27;52.58
11648;BME280;5880;52.342;9.662;2024-01-30T12:20:18;101945.44;;;14.30;52.49
11648;BME280;5880;52.342;9.662;2024-01-30T12:22:47;101962.56;;;14.32;52.45
11648;BME280;5880;52.342;9.662;2024-01-30T12:25:18;101963.19;;;14.34;52.38
11648;BME280;5880;52.342;9.662;2024-01-30T12:27:52;101965.72;;;14.35;52.16
11648;BME280;5880;52.342;9.662;2024-01-30T12:30:20;101967.63;;;14.35;51.97
11648;BME280;5880;52.342;9.662;2024-01-30T12:32:47;101977.78;;;14.34;52.05
11648;BME280;5880;52.342;9.662;2024-01-30T12:35:16;101969.78;;;14.33;52.05
11648;BME280;5880;52.342;9.662;2024-01-30T12:37:47;101967.63;;;14.35;51.98
11648;BME280;5880;52.342;9.662;2024-01-30T12:40:17;101963.81;;;14.36;51.97
11648;BME280;5880;52.342;9.662;2024-01-30T12:42:45;101957.69;;;14.34;52.13
11648;BME280;5880;52.342;9.662;2024-01-30T12:45:14;101961.06;;;14.36;52.08
11648;BME280;5880;52.342;9.662;2024-01-30T12:47:41;101963.16;;;14.41;52.16
11648;BME280;5880;52.342;9.662;2024-01-30T12:50:07;101965.44;;;14.44;52.19
11648;BME280;5880;52.342;9.662;2024-01-30T12:52:35;101974.72;;;14.49;52.11
11648;BME280;5880;52.342;9.662;2024-01-30T12:55:01;101973.41;;;14.52;52.16
11648;BME280;5880;52.342;9.662;2024-01-30T12:57:27;101972.97;;;14.55;52.13
11648;BME280;5880;52.342;9.662;2024-01-30T12:59:52;101965.16;;;14.52;52.04
11648;BME280;5880;52.342;9.662;2024-01-30T13:02:18;101964.28;;;14.58;51.93